createdAt,value
2023-03-01T00:19:28.943Z,3.00
2023-03-01T00:39:28.719Z,2.70
2023-03-01T00:59:28.475Z,2.90
2023-03-01T01:19:28.164Z,3.00
2023-03-01T01:39:27.891Z,4.20
2023-03-01T01:59:27.630Z,4.30
2023-03-01T02:19:27.387Z,4.70
2023-03-01T02:39:27.145Z,6.00
2023-03-01T02:59:26.883Z,5.30
2023-03-01T03:19:26.650Z,5.80
2023-03-01T03:39:26.434Z,5.80
2023-03-01T03:59:26.096Z,9.40
2023-03-01T04:19:25.828Z,10.40
2023-03-01T04:39:25.574Z,8.90
2023-03-01T04:59:25.347Z,11.50
2023-03-01T05:19:25.097Z,10.50
2023-03-01T05:39:24.852Z,15.10
2023-03-01T05:59:24.511Z,12.90
2023-03-01T06:19:24.279Z,11.50
2023-03-01T06:39:24.113Z,14.50
2023-03-01T06:59:23.735Z,9.60
2023-03-01T07:19:23.548Z,5.10
2023-03-01T07:57:09.530Z,22.30
2023-03-01T08:17:09.251Z,8.50
2023-03-01T08:37:09.025Z,7.40
2023-03-01T08:57:08.729Z,9.80
2023-03-01T09:17:08.535Z,7.00
2023-03-01T09:37:08.197Z,12.10
2023-03-01T09:57:07.894Z,14.20
2023-03-01T10:17:07.667Z,10.30
2023-03-01T10:37:07.382Z,7.30
2023-03-01T10:57:07.098Z,14.60
2023-03-01T11:17:06.900Z,14.20
2023-03-01T11:37:06.606Z,16.00
2023-03-01T11:57:06.303Z,22.50
2023-03-01T12:17:06.012Z,19.50
2023-03-01T12:37:05.724Z,21.90
2023-03-01T12:57:05.481Z,20.00
2023-03-01T13:17:05.295Z,20.00
2023-03-01T13:37:04.889Z,14.80
2023-03-01T13:57:04.675Z,15.10
2023-03-01T14:17:04.352Z,19.20
2023-03-01T14:37:04.066Z,15.70
2023-03-01T14:57:03.792Z,19.40
2023-03-01T15:17:03.520Z,18.40
2023-03-01T15:37:03.270Z,16.00
2023-03-01T15:57:03.015Z,15.80
2023-03-01T16:17:02.683Z,26.10
2023-03-01T16:37:02.422Z,22.10
2023-03-01T16:57:02.228Z,15.70
2023-03-01T17:17:01.884Z,15.40
2023-03-01T17:37:01.633Z,17.20
2023-03-01T17:57:01.336Z,24.20
2023-03-01T18:17:01.171Z,24.20
2023-03-01T18:37:09.120Z,20.40
2023-03-01T18:57:00.522Z,17.50
2023-03-01T19:17:00.280Z,11.40
2023-03-01T19:37:00.056Z,13.90
2023-03-01T19:56:59.723Z,10.00
2023-03-01T20:16:59.491Z,16.00
2023-03-01T20:36:59.220Z,9.70
2023-03-01T20:56:58.916Z,14.70
2023-03-01T21:16:58.666Z,21.40
2023-03-01T21:36:58.376Z,21.30
2023-03-01T21:56:58.095Z,23.10
2023-03-01T22:16:57.890Z,23.40
2023-03-01T22:36:57.588Z,20.20
2023-03-01T22:56:57.281Z,24.10
2023-03-01T23:16:57.068Z,22.30
2023-03-01T23:36:56.753Z,19.00
2023-03-01T23:56:56.516Z,26.00
